Time;durP1;ratioP1;P1;durP2;ratioP2;P2;SDS_P1;SDS_P2;PMS_P1;PMS_P2;Temp;Humidity;BMP_temperature;BMP_pressure;BME280_temperature;BME280_humidity;BME280_pressure;Samples;Min_cycle;Max_cycle;Signal;HPM_P1;HPM_P2
2023/01/07 00:01:37;;;;;;;4.40;3.23;;;10.80;1.00;;;;;;5050492;28;20536;-53
2023/01/07 00:04:04;;;;;;;3.90;2.87;;;10.80;1.00;;;;;;5052468;28;20418;-54
2023/01/07 00:06:34;;;;;;;5.57;3.97;;;10.70;1.00;;;;;;5052153;28;20416;-52
2023/01/07 00:09:00;;;;;;;3.40;2.53;;;10.90;1.00;;;;;;5052872;28;20422;-53
2023/01/07 00:11:28;;;;;;;2.13;1.80;;;10.90;1.00;;;;;;5052259;28;20452;-54
2023/01/07 00:13:56;;;;;;;3.07;2.10;;;11.00;1.00;;;;;;5057237;28;20479;-53
2023/01/07 00:16:24;;;;;;;1.97;1.87;;;11.10;1.00;;;;;;5052263;28;20415;-52
2023/01/07 00:18:50;;;;;;;2.10;1.90;;;11.10;1.00;;;;;;5069515;28;20949;-53
2023/01/07 00:21:17;;;;;;;2.43;2.23;;;11.20;1.00;;;;;;5051059;28;20448;-53
2023/01/07 00:23:45;;;;;;;2.30;2.10;;;11.30;1.00;;;;;;5059066;28;20989;-54
2023/01/07 00:26:16;;;;;;;2.40;2.20;;;11.20;1.00;;;;;;5059786;28;20496;-55
2023/01/07 00:28:43;;;;;;;3.67;2.47;;;11.20;1.00;;;;;;5050213;28;20456;-54
2023/01/07 00:31:11;;;;;;;2.07;1.97;;;11.30;1.00;;;;;;5053563;28;20542;-53
2023/01/07 00:33:47;;;;;;;2.03;1.83;;;11.30;1.00;;;;;;5050093;28;20419;-53
2023/01/07 00:36:13;;;;;;;2.30;2.10;;;11.30;1.00;;;;;;5063435;28;20452;-55
2023/01/07 00:38:38;;;;;;;1.93;1.83;;;11.40;1.00;;;;;;5069151;28;20834;-53
2023/01/07 00:41:04;;;;;;;2.77;2.03;;;11.50;1.00;;;;;;5054804;28;20190;-53
2023/01/07 00:43:31;;;;;;;3.70;2.20;;;11.40;1.00;;;;;;5052349;28;20187;-53
2023/01/07 00:45:56;;;;;;;4.43;1.93;;;11.40;1.00;;;;;;5058435;28;20444;-53
2023/01/07 00:48:22;;;;;;;2.97;1.97;;;11.40;1.00;;;;;;5045337;28;20481;-54
2023/01/07 00:50:49;;;;;;;3.10;1.90;;;11.40;1.00;;;;;;5060205;28;20913;-55
2023/01/07 00:53:15;;;;;;;2.50;2.30;;;11.50;1.00;;;;;;5054883;28;20432;-52
2023/01/07 00:55:41;;;;;;;4.87;2.17;;;11.50;1.00;;;;;;5068959;28;20437;-56
2023/01/07 00:58:06;;;;;;;2.13;1.80;;;11.40;1.00;;;;;;5050750;28;20952;-56
2023/01/07 01:00:32;;;;;;;4.90;2.70;;;11.30;1.00;;;;;;5059888;28;20194;-54
2023/01/07 01:02:58;;;;;;;2.70;2.37;;;11.30;1.00;;;;;;5050230;28;20183;-53
2023/01/07 01:05:25;;;;;;;6.30;2.90;;;11.30;1.00;;;;;;5045551;28;20454;-53
2023/01/07 01:07:51;;;;;;;4.00;1.97;;;11.30;1.00;;;;;;5059769;28;20247;-55
2023/01/07 01:10:18;;;;;;;3.13;2.00;;;11.30;1.00;;;;;;5051834;28;20954;-54
2023/01/07 01:12:45;;;;;;;2.47;1.90;;;11.50;1.00;;;;;;5058815;28;20441;-53
2023/01/07 01:15:14;;;;;;;2.13;1.90;;;11.60;1.00;;;;;;5065617;28;20518;-52
2023/01/07 01:17:40;;;;;;;1.70;1.60;;;11.80;1.00;;;;;;5062708;28;21058;-53
2023/01/07 01:20:08;;;;;;;2.00;1.90;;;11.80;1.00;;;;;;5053359;28;20414;-53
2023/01/07 01:22:33;;;;;;;2.40;1.70;;;11.70;1.00;;;;;;5066295;28;20500;-52
2023/01/07 01:24:59;;;;;;;1.87;1.70;;;11.60;1.00;;;;;;5067095;28;20522;-52
2023/01/07 01:27:25;;;;;;;2.07;1.87;;;11.70;1.00;;;;;;5059931;28;20251;-51
2023/01/07 01:29:50;;;;;;;1.90;1.80;;;11.70;1.00;;;;;;5059165;28;20205;-54
2023/01/07 01:32:16;;;;;;;1.73;1.63;;;11.70;1.00;;;;;;5060571;28;20188;-54
2023/01/07 01:34:42;;;;;;;1.70;1.60;;;11.70;1.00;;;;;;5055095;28;20202;-52
2023/01/07 01:37:07;;;;;;;2.03;1.93;;;11.70;1.00;;;;;;5052975;28;20201;-53
2023/01/07 01:39:33;;;;;;;1.83;1.73;;;11.60;1.00;;;;;;5052975;28;20191;-52
2023/01/07 01:41:59;;;;;;;1.50;1.40;;;11.60;1.00;;;;;;5063721;28;20261;-54
2023/01/07 01:44:44;;;;;;;3.90;1.60;;;11.60;1.00;;;;;;5055143;28;20295;-54
2023/01/07 01:47:24;;;;;;;1.50;1.40;;;11.60;1.00;;;;;;5054884;28;20209;-53
2023/01/07 01:50:03;;;;;;;1.73;1.63;;;11.60;1.00;;;;;;5054638;28;20472;-54
2023/01/07 01:52:36;;;;;;;3.83;1.63;;;11.50;1.00;;;;;;5069957;28;20921;-54
2023/01/07 01:55:05;;;;;;;1.80;1.70;;;11.50;1.00;;;;;;5069296;28;20459;-53
2023/01/07 01:57:33;;;;;;;1.73;1.63;;;11.50;1.00;;;;;;5049691;28;20462;-54
2023/01/07 01:59:59;;;;;;;1.80;1.70;;;11.40;1.00;;;;;;5052249;28;20480;-54
2023/01/07 02:02:31;;;;;;;1.70;1.60;;;11.40;1.00;;;;;;5055699;28;20453;-53
2023/01/07 02:04:57;;;;;;;1.73;1.63;;;11.40;1.00;;;;;;5050484;28;20908;-52
2023/01/07 02:07:23;;;;;;;1.60;1.50;;;11.30;1.00;;;;;;5050995;28;20453;-53
2023/01/07 02:10:10;;;;;;;1.40;1.30;;;11.40;1.00;;;;;;5065340;28;20177;-52
2023/01/07 02:13:05;;;;;;;1.30;1.20;;;11.50;1.00;;;;;;5067816;28;20183;-52
2023/01/07 02:16:08;;;;;;;1.50;1.40;;;11.50;1.00;;;;;;5057360;28;20452;-54
2023/01/07 02:18:39;;;;;;;1.90;1.67;;;11.50;1.00;;;;;;5060603;28;20967;-52
2023/01/07 02:21:16;;;;;;;1.80;1.70;;;11.50;1.00;;;;;;5073813;28;20451;-52
2023/01/07 02:24:08;;;;;;;1.70;1.60;;;11.50;1.00;;;;;;5056417;28;20453;-54
2023/01/07 02:27:08;;;;;;;2.13;1.60;;;11.50;1.00;;;;;;5057453;28;20518;-53
2023/01/07 02:30:18;;;;;;;2.10;1.90;;;11.50;1.00;;;;;;5032949;28;20415;-55
2023/01/07 02:33:12;;;;;;;1.30;1.20;;;11.40;1.00;;;;;;5048361;28;20457;-52
2023/01/07 02:35:56;;;;;;;1.50;1.40;;;11.50;1.00;;;;;;5036233;28;20895;-53
2023/01/07 02:38:55;;;;;;;1.70;1.40;;;11.40;1.00;;;;;;5055957;28;20438;-53
2023/01/07 02:41:48;;;;;;;2.10;1.70;;;11.40;1.00;;;;;;5058322;28;20423;-54
2023/01/07 02:44:41;;;;;;;1.87;1.60;;;11.40;1.00;;;;;;5073855;28;20439;-52
2023/01/07 02:47:17;;;;;;;2.97;1.83;;;11.40;1.00;;;;;;5053551;28;20440;-54
2023/01/07 02:49:45;;;;;;;1.80;1.43;;;11.40;1.00;;;;;;5033970;28;20524;-54
2023/01/07 02:52:22;;;;;;;1.27;1.17;;;11.60;1.00;;;;;;5041889;28;20495;-52
2023/01/07 02:55:15;;;;;;;1.47;1.20;;;11.70;1.00;;;;;;5053641;28;20496;-54
2023/01/07 02:57:50;;;;;;;2.63;0.90;;;11.70;1.00;;;;;;5048972;28;20949;-53
2023/01/07 03:00:41;;;;;;;2.23;1.33;;;11.80;1.00;;;;;;5052916;28;20844;-52
2023/01/07 03:03:29;;;;;;;1.30;1.20;;;12.00;1.00;;;;;;5052886;28;20449;-54
2023/01/07 03:06:54;;;;;;;1.23;1.13;;;12.10;1.00;;;;;;5049852;28;20441;-54
2023/01/07 03:09:54;;;;;;;1.73;1.20;;;12.00;1.00;;;;;;5017156;28;20427;-51
2023/01/07 03:12:23;;;;;;;1.10;1.00;;;12.00;1.00;;;;;;5035856;28;20943;-53
2023/01/07 03:15:03;;;;;;;1.33;1.13;;;11.90;1.00;;;;;;5053703;28;20449;-53
2023/01/07 03:17:40;;;;;;;1.53;1.43;;;12.00;1.00;;;;;;5052376;28;20959;-55
2023/01/07 03:20:07;;;;;;;1.20;1.10;;;12.00;1.00;;;;;;5052629;28;20443;-54
2023/01/07 03:22:35;;;;;;;2.60;1.40;;;12.00;1.00;;;;;;5049010;28;20802;-52
2023/01/07 03:25:02;;;;;;;1.60;1.43;;;12.00;1.00;;;;;;5047073;28;20418;-55
2023/01/07 03:27:32;;;;;;;1.73;1.20;;;11.90;1.00;;;;;;5049702;28;20440;-53
2023/01/07 03:30:01;;;;;;;1.73;1.30;;;11.90;1.00;;;;;;5049640;28;20449;-54
2023/01/07 03:32:37;;;;;;;2.40;0.97;;;11.80;1.00;;;;;;5049003;28;20442;-53
2023/01/07 03:35:04;;;;;;;2.10;1.90;;;11.70;1.00;;;;;;5052397;28;20522;-54
2023/01/07 03:37:31;;;;;;;1.10;1.00;;;11.60;1.00;;;;;;5053214;28;20504;-55
2023/01/07 03:39:57;;;;;;;1.40;1.30;;;11.60;1.00;;;;;;5064295;28;20821;-53
2023/01/07 03:42:39;;;;;;;1.50;1.40;;;11.60;1.00;;;;;;5060301;28;20938;-53
2023/01/07 03:45:07;;;;;;;2.33;1.30;;;11.60;1.00;;;;;;5041483;28;20455;-54
2023/01/07 03:47:34;;;;;;;1.00;1.00;;;11.60;1.00;;;;;;5057833;28;20441;-54
2023/01/07 03:50:00;;;;;;;1.60;1.13;;;11.60;1.00;;;;;;5043213;28;20534;-54
2023/01/07 03:52:25;;;;;;;1.40;1.30;;;11.50;1.00;;;;;;5052064;28;20449;-54
2023/01/07 03:54:51;;;;;;;1.83;0.97;;;11.50;1.00;;;;;;5053304;28;20468;-56
2023/01/07 03:57:17;;;;;;;1.13;1.07;;;11.80;1.00;;;;;;5051285;28;20191;-54
2023/01/07 03:59:42;;;;;;;1.30;1.20;;;11.80;1.00;;;;;;5051886;28;20701;-52
2023/01/07 04:02:08;;;;;;;1.60;1.40;;;11.80;1.00;;;;;;5052150;28;20198;-52
2023/01/07 04:04:33;;;;;;;1.30;1.20;;;11.80;1.00;;;;;;5051807;28;20186;-54
2023/01/07 04:06:59;;;;;;;1.03;0.93;;;11.70;1.00;;;;;;5064728;28;20268;-55
2023/01/07 04:09:25;;;;;;;0.93;0.90;;;11.70;1.00;;;;;;5052222;28;20264;-52
2023/01/07 04:11:50;;;;;;;0.83;0.80;;;11.70;1.00;;;;;;5052295;28;20331;-54
2023/01/07 04:14:16;;;;;;;1.13;1.03;;;11.60;1.00;;;;;;5060547;28;20197;-53
2023/01/07 04:16:41;;;;;;;0.83;0.83;;;11.40;1.00;;;;;;5056439;28;20196;-53
2023/01/07 04:19:07;;;;;;;1.47;1.37;;;11.50;1.00;;;;;;5049001;28;20213;-54
2023/01/07 04:21:33;;;;;;;0.97;0.87;;;11.40;1.00;;;;;;5058210;28;21059;-55
2023/01/07 04:23:58;;;;;;;1.10;1.00;;;11.40;1.00;;;;;;5052358;28;20232;-53
2023/01/07 04:26:24;;;;;;;1.67;1.57;;;11.50;1.00;;;;;;5046300;28;20257;-53
2023/01/07 04:28:49;;;;;;;1.30;1.20;;;11.50;1.00;;;;;;5053876;28;20186;-52
2023/01/07 04:31:15;;;;;;;2.40;1.03;;;11.50;1.00;;;;;;5059225;28;20270;-55
2023/01/07 04:33:41;;;;;;;1.70;1.00;;;11.50;1.00;;;;;;5062580;28;20192;-55
2023/01/07 04:36:07;;;;;;;1.37;1.00;;;11.50;1.00;;;;;;5051945;28;20194;-53
2023/01/07 04:38:33;;;;;;;7.60;1.43;;;11.50;1.00;;;;;;5051738;28;20303;-53
2023/01/07 04:40:59;;;;;;;1.30;1.03;;;11.30;1.00;;;;;;5064670;28;20533;-54
2023/01/07 04:43:24;;;;;;;0.80;0.80;;;11.30;1.00;;;;;;5056677;28;20213;-54
2023/01/07 04:45:50;;;;;;;1.50;1.27;;;11.30;1.00;;;;;;5053739;28;20633;-55
2023/01/07 04:48:16;;;;;;;1.17;1.07;;;11.20;1.00;;;;;;5051170;28;20229;-53
2023/01/07 04:50:41;;;;;;;1.17;1.00;;;11.10;1.00;;;;;;5052244;28;20218;-52
2023/01/07 04:53:07;;;;;;;1.10;0.90;;;11.20;1.00;;;;;;5058482;28;20202;-53
2023/01/07 04:55:33;;;;;;;0.80;0.80;;;11.10;1.00;;;;;;5060439;28;20562;-56
2023/01/07 04:57:58;;;;;;;1.07;0.60;;;11.10;1.00;;;;;;5049670;28;20500;-53
2023/01/07 05:00:24;;;;;;;1.00;0.90;;;11.00;1.00;;;;;;5063835;28;20237;-52
2023/01/07 05:02:49;;;;;;;1.00;0.80;;;11.00;1.00;;;;;;5058292;28;20707;-52
2023/01/07 05:05:15;;;;;;;1.03;0.93;;;10.90;1.00;;;;;;5055764;28;20290;-53
2023/01/07 05:07:41;;;;;;;1.20;1.10;;;10.90;1.00;;;;;;5055533;28;20555;-54
2023/01/07 05:10:07;;;;;;;1.00;1.00;;;11.00;1.00;;;;;;5055232;28;20197;-53
2023/01/07 05:12:34;;;;;;;0.93;0.90;;;10.90;1.00;;;;;;5054281;28;20200;-53
2023/01/07 05:15:01;;;;;;;1.33;1.10;;;10.80;1.00;;;;;;5054250;28;20505;-55
2023/01/07 05:17:27;;;;;;;1.47;1.13;;;10.70;1.00;;;;;;5056331;28;20985;-55
2023/01/07 05:19:53;;;;;;;1.60;1.10;;;10.70;1.00;;;;;;5052364;28;20443;-52
2023/01/07 05:22:18;;;;;;;1.20;1.10;;;10.60;1.00;;;;;;5055107;28;20440;-53
2023/01/07 05:24:44;;;;;;;1.63;1.43;;;10.50;1.00;;;;;;5050616;28;20204;-54
2023/01/07 05:27:09;;;;;;;1.87;1.33;;;10.60;1.00;;;;;;5052897;28;20184;-54
2023/01/07 05:29:35;;;;;;;2.57;1.47;;;10.70;1.00;;;;;;5052424;28;20197;-54
2023/01/07 05:32:01;;;;;;;1.50;1.13;;;10.60;1.00;;;;;;5055369;28;20190;-52
2023/01/07 05:34:26;;;;;;;2.33;0.90;;;10.70;1.00;;;;;;5054753;28;20532;-53
2023/01/07 05:36:52;;;;;;;1.17;0.93;;;10.80;1.00;;;;;;5060523;28;20190;-54
2023/01/07 05:39:17;;;;;;;1.67;1.10;;;10.80;1.00;;;;;;5049065;28;20210;-52
2023/01/07 05:41:43;;;;;;;1.30;1.20;;;10.90;1.00;;;;;;5055370;28;20179;-53
2023/01/07 05:44:09;;;;;;;1.20;1.10;;;10.90;1.00;;;;;;5051039;28;20300;-56
2023/01/07 05:46:34;;;;;;;1.70;1.40;;;10.90;1.00;;;;;;5062441;28;20271;-53
2023/01/07 05:49:00;;;;;;;0.80;0.80;;;10.90;1.00;;;;;;5063023;28;20212;-54
2023/01/07 05:51:25;;;;;;;1.43;0.90;;;11.00;1.00;;;;;;5058045;28;20234;-53
2023/01/07 05:53:51;;;;;;;0.83;0.73;;;11.00;1.00;;;;;;5052709;28;20656;-52
2023/01/07 05:56:16;;;;;;;0.80;0.80;;;9.80;1.00;;;;;;5054080;28;20270;-55
2023/01/07 05:58:42;;;;;;;1.30;1.20;;;10.90;1.00;;;;;;5053633;28;20235;-54
2023/01/07 06:01:08;;;;;;;4.90;2.10;;;10.90;1.00;;;;;;5043250;28;20251;-53
2023/01/07 06:03:33;;;;;;;1.40;1.30;;;10.80;1.00;;;;;;5058593;28;20210;-54
2023/01/07 06:06:05;;;;;;;2.27;1.20;;;10.80;1.00;;;;;;5057482;28;20218;-52
2023/01/07 06:08:32;;;;;;;0.93;0.83;;;10.80;1.00;;;;;;5060407;28;20195;-54
2023/01/07 06:10:58;;;;;;;1.00;0.80;;;10.90;1.00;;;;;;5053331;28;20499;-54
2023/01/07 06:13:24;;;;;;;1.23;1.07;;;10.90;1.00;;;;;;5057067;28;20783;-54
2023/01/07 06:15:49;;;;;;;1.57;0.90;;;10.90;1.00;;;;;;5054732;28;20289;-53
2023/01/07 06:18:15;;;;;;;1.17;1.07;;;10.90;1.00;;;;;;5052704;28;20206;-54
2023/01/07 06:20:41;;;;;;;0.70;0.70;;;11.00;1.00;;;;;;5050698;28;20187;-55
2023/01/07 06:23:06;;;;;;;1.03;0.80;;;11.00;1.00;;;;;;5053071;28;20186;-54
2023/01/07 06:25:32;;;;;;;1.33;1.00;;;11.00;1.00;;;;;;5053256;28;20190;-54
2023/01/07 06:27:58;;;;;;;2.00;1.03;;;11.10;1.00;;;;;;5059803;28;20254;-53
2023/01/07 06:30:24;;;;;;;1.20;1.03;;;11.20;1.00;;;;;;5056046;28;20201;-52
2023/01/07 06:32:49;;;;;;;0.80;0.80;;;11.10;1.00;;;;;;5067504;28;20280;-53
2023/01/07 06:35:15;;;;;;;1.13;1.03;;;11.10;1.00;;;;;;5065149;28;20425;-53
2023/01/07 06:37:40;;;;;;;1.60;1.50;;;11.20;1.00;;;;;;5054818;28;20271;-54
2023/01/07 06:40:07;;;;;;;1.10;1.00;;;11.20;1.00;;;;;;5053226;28;20220;-54
2023/01/07 06:42:33;;;;;;;0.97;0.90;;;11.30;1.00;;;;;;5052772;28;20220;-54
2023/01/07 06:44:58;;;;;;;1.93;0.80;;;11.30;1.00;;;;;;5052810;28;20429;-53
2023/01/07 06:47:24;;;;;;;1.60;1.27;;;11.30;1.00;;;;;;5053086;28;20194;-53
2023/01/07 06:49:51;;;;;;;1.50;1.30;;;11.40;1.00;;;;;;5015763;28;1087395;-54
2023/01/07 06:52:17;;;;;;;0.70;0.70;;;11.40;1.00;;;;;;5059342;28;20187;-53
2023/01/07 06:54:42;;;;;;;0.60;0.60;;;11.30;1.00;;;;;;5052892;28;20972;-53
2023/01/07 06:57:08;;;;;;;1.83;1.10;;;11.30;1.00;;;;;;5058212;28;20194;-53
2023/01/07 06:59:33;;;;;;;1.30;1.20;;;11.30;1.00;;;;;;5052489;28;20611;-54
2023/01/07 07:01:59;;;;;;;0.87;0.87;;;11.30;1.00;;;;;;5049953;28;20192;-53
2023/01/07 07:04:25;;;;;;;0.80;0.80;;;11.30;1.00;;;;;;5053804;28;20195;-53
2023/01/07 07:06:50;;;;;;;0.83;0.83;;;11.30;1.00;;;;;;5052023;28;20202;-54
2023/01/07 07:09:16;;;;;;;1.20;0.87;;;11.30;1.00;;;;;;5054047;28;20228;-54
2023/01/07 07:11:41;;;;;;;1.40;1.30;;;11.30;1.00;;;;;;5054251;28;20186;-52
2023/01/07 07:14:08;;;;;;;0.93;0.80;;;11.30;1.00;;;;;;5060987;28;20228;-54
2023/01/07 07:16:34;;;;;;;1.20;1.10;;;11.30;1.00;;;;;;5060464;28;20332;-55
2023/01/07 07:18:59;;;;;;;1.17;1.07;;;11.40;1.00;;;;;;5053863;28;20910;-52
2023/01/07 07:21:25;;;;;;;5.43;2.83;;;11.40;1.00;;;;;;5055060;28;20648;-53
2023/01/07 07:23:51;;;;;;;2.50;2.17;;;11.40;1.00;;;;;;5061580;28;20186;-54
2023/01/07 07:26:16;;;;;;;3.40;2.27;;;11.20;1.00;;;;;;5051710;28;20189;-54
2023/01/07 07:28:43;;;;;;;1.63;1.40;;;11.20;1.00;;;;;;5047774;28;20675;-54
2023/01/07 07:31:09;;;;;;;1.50;1.30;;;11.20;1.00;;;;;;5048480;28;20195;-53
2023/01/07 07:33:35;;;;;;;1.40;1.23;;;11.10;1.00;;;;;;5051320;28;20436;-55
2023/01/07 07:36:01;;;;;;;1.43;1.30;;;11.00;1.00;;;;;;5060353;28;20412;-56
2023/01/07 07:38:27;;;;;;;1.67;1.53;;;11.00;1.00;;;;;;5059096;28;20232;-54
2023/01/07 07:40:52;;;;;;;1.80;1.70;;;10.90;1.00;;;;;;5062364;28;20220;-53
2023/01/07 07:43:18;;;;;;;2.10;1.90;;;10.90;1.00;;;;;;5052742;28;20504;-56
2023/01/07 07:45:44;;;;;;;1.40;1.27;;;11.00;1.00;;;;;;5060656;28;20187;-54
2023/01/07 07:48:13;;;;;;;5.23;1.83;;;10.90;1.00;;;;;;5061360;28;20265;-54
2023/01/07 07:50:39;;;;;;;2.00;1.80;;;10.90;1.00;;;;;;5072643;28;20257;-54
2023/01/07 07:53:08;;;;;;;1.97;1.60;;;10.90;1.00;;;;;;5064484;28;20464;-52
2023/01/07 07:55:36;;;;;;;2.00;1.40;;;10.90;1.00;;;;;;5066329;28;20447;-53
2023/01/07 07:58:01;;;;;;;1.80;1.70;;;10.90;1.00;;;;;;5057116;28;20997;-53
2023/01/07 08:00:27;;;;;;;1.50;1.40;;;10.90;1.00;;;;;;5054605;28;20440;-54
2023/01/07 08:02:57;;;;;;;2.43;1.60;;;10.90;1.00;;;;;;5049744;28;20193;-54
2023/01/07 08:05:22;;;;;;;2.10;1.60;;;11.00;1.00;;;;;;5050407;28;20198;-52
2023/01/07 08:07:48;;;;;;;2.20;1.50;;;11.00;1.00;;;;;;5050922;28;20436;-55
2023/01/07 08:10:14;;;;;;;1.70;1.50;;;11.00;1.00;;;;;;5049086;28;20190;-52
2023/01/07 08:12:39;;;;;;;10.20;1.77;;;11.00;1.00;;;;;;5057410;28;20197;-54
2023/01/07 08:15:07;;;;;;;2.27;2.07;;;11.10;1.00;;;;;;5066829;28;20195;-53
2023/01/07 08:17:32;;;;;;;2.80;1.67;;;11.10;1.00;;;;;;5060697;28;20190;-54
2023/01/07 08:19:58;;;;;;;1.97;1.70;;;11.20;1.00;;;;;;5050308;28;20452;-56
2023/01/07 08:22:24;;;;;;;2.60;2.17;;;11.30;1.00;;;;;;5059716;28;20593;-53
2023/01/07 08:24:49;;;;;;;1.70;1.60;;;11.30;1.00;;;;;;5055228;28;20368;-55
2023/01/07 08:27:15;;;;;;;2.63;2.37;;;11.40;1.00;;;;;;5060601;28;20528;-54
2023/01/07 08:29:40;;;;;;;2.83;2.43;;;11.50;1.00;;;;;;5052055;28;20221;-55
2023/01/07 08:32:06;;;;;;;2.67;1.90;;;11.50;1.00;;;;;;5064407;28;20193;-54
2023/01/07 08:34:32;;;;;;;2.50;2.30;;;11.50;1.00;;;;;;5068867;28;20237;-55
2023/01/07 08:36:57;;;;;;;1.90;1.60;;;11.50;1.00;;;;;;5051350;28;20288;-54
2023/01/07 08:39:23;;;;;;;2.47;2.27;;;11.60;1.00;;;;;;5058230;28;20256;-54
2023/01/07 08:41:48;;;;;;;3.30;2.63;;;11.60;1.00;;;;;;5068089;28;20200;-52
2023/01/07 08:44:14;;;;;;;3.13;1.80;;;11.60;1.00;;;;;;5043426;28;20278;-55
2023/01/07 08:46:41;;;;;;;2.17;1.97;;;11.70;1.00;;;;;;5055510;28;20181;-52
2023/01/07 08:49:09;;;;;;;3.97;2.77;;;11.70;1.00;;;;;;5066800;28;20261;-54
2023/01/07 08:51:34;;;;;;;3.83;3.20;;;11.80;1.00;;;;;;5068919;28;20429;-55
2023/01/07 08:54:00;;;;;;;3.50;2.70;;;11.90;1.00;;;;;;5066178;28;20933;-54
2023/01/07 08:56:25;;;;;;;6.80;3.40;;;11.80;1.00;;;;;;5065637;28;20198;-56
2023/01/07 08:58:51;;;;;;;4.60;3.50;;;11.90;1.00;;;;;;5055265;28;20696;-52
2023/01/07 09:01:17;;;;;;;4.67;3.90;;;11.90;1.00;;;;;;5061182;28;20251;-54
2023/01/07 09:03:42;;;;;;;3.60;3.30;;;11.90;1.00;;;;;;5056901;28;20186;-54
2023/01/07 09:06:08;;;;;;;5.53;4.00;;;11.80;1.00;;;;;;5054997;28;20648;-54
2023/01/07 09:08:34;;;;;;;4.20;3.50;;;11.80;1.00;;;;;;5048941;28;20485;-55
2023/01/07 09:11:00;;;;;;;4.70;4.13;;;11.90;1.00;;;;;;5052246;28;20515;-53
2023/01/07 09:13:26;;;;;;;5.47;4.60;;;11.90;1.00;;;;;;5052798;28;20500;-53
2023/01/07 09:15:52;;;;;;;4.77;4.07;;;11.90;1.00;;;;;;5066157;28;20190;-52
2023/01/07 09:18:18;;;;;;;4.30;3.60;;;11.90;1.00;;;;;;5066748;28;20219;-56
2023/01/07 09:20:44;;;;;;;4.80;3.87;;;12.00;1.00;;;;;;5067066;28;20809;-55
2023/01/07 09:23:09;;;;;;;4.60;4.03;;;12.10;1.00;;;;;;5061370;28;20440;-55
2023/01/07 09:25:35;;;;;;;4.80;4.03;;;12.10;1.00;;;;;;5055626;28;20183;-54
2023/01/07 09:28:01;;;;;;;4.40;4.00;;;12.30;1.00;;;;;;5047459;28;20195;-55
2023/01/07 09:30:27;;;;;;;3.93;3.23;;;12.30;1.00;;;;;;5060663;28;20427;-53
2023/01/07 09:32:52;;;;;;;5.40;3.80;;;12.50;1.00;;;;;;5064643;28;20190;-54
2023/01/07 09:35:18;;;;;;;4.33;3.47;;;12.50;1.00;;;;;;5062133;28;20199;-52
2023/01/07 09:37:44;;;;;;;5.10;3.97;;;12.50;1.00;;;;;;5061036;28;20292;-53
2023/01/07 09:40:37;;;;;;;6.50;4.77;;;12.60;1.00;;;;;;5056707;28;20256;-54
2023/01/07 09:43:21;;;;;;;4.70;4.10;;;12.60;1.00;;;;;;5056335;28;20600;-54
2023/01/07 09:45:52;;;;;;;4.33;3.67;;;12.60;1.00;;;;;;5058551;28;20513;-53
2023/01/07 09:48:49;;;;;;;4.13;3.73;;;12.80;1.00;;;;;;5070061;28;20492;-52
2023/01/07 09:51:24;;;;;;;4.20;3.60;;;12.70;1.00;;;;;;5024144;28;20469;-53
2023/01/07 09:53:56;;;;;;;4.37;3.63;;;12.70;1.00;;;;;;5050964;28;20889;-55
2023/01/07 09:56:33;;;;;;;4.70;3.57;;;12.70;1.00;;;;;;5056176;28;20502;-53
2023/01/07 09:59:00;;;;;;;4.03;3.60;;;12.70;1.00;;;;;;5063092;28;20442;-54
2023/01/07 10:01:34;;;;;;;4.20;3.80;;;12.80;1.00;;;;;;5057507;28;20507;-53
2023/01/07 10:04:11;;;;;;;5.03;4.23;;;12.80;1.00;;;;;;5056068;28;20424;-54
2023/01/07 10:07:00;;;;;;;4.93;4.03;;;12.80;1.00;;;;;;5057746;28;20949;-52
2023/01/07 10:10:01;;;;;;;4.43;4.00;;;12.90;1.00;;;;;;5037770;28;20423;-55
2023/01/07 10:13:02;;;;;;;6.40;4.63;;;13.00;1.00;;;;;;5055124;28;20422;-53
2023/01/07 10:15:39;;;;;;;7.30;4.40;;;13.10;1.00;;;;;;5054297;28;20937;-54
2023/01/07 10:18:32;;;;;;;4.93;4.47;;;13.00;1.00;;;;;;5057984;28;20473;-53
2023/01/07 10:21:11;;;;;;;6.70;4.10;;;13.10;1.00;;;;;;5060034;28;20412;-51
2023/01/07 10:23:40;;;;;;;5.70;4.30;;;13.20;1.00;;;;;;5064214;28;20455;-53
2023/01/07 10:26:17;;;;;;;5.80;5.20;;;13.20;1.00;;;;;;5063968;28;20444;-52
2023/01/07 10:29:15;;;;;;;4.80;4.37;;;13.20;1.00;;;;;;5074459;28;20481;-53
2023/01/07 10:31:42;;;;;;;4.87;4.20;;;13.10;1.00;;;;;;5057930;28;20451;-54
2023/01/07 10:34:25;;;;;;;7.50;4.40;;;13.10;1.00;;;;;;5067110;28;20424;-54
2023/01/07 10:37:05;;;;;;;5.23;4.70;;;13.10;1.00;;;;;;5059048;28;20417;-54
2023/01/07 10:39:45;;;;;;;7.13;4.33;;;13.30;1.00;;;;;;5058098;28;20520;-54
2023/01/07 10:42:16;;;;;;;4.20;3.80;;;13.30;1.00;;;;;;5061890;28;20444;-54
2023/01/07 10:44:41;;;;;;;5.93;4.37;;;13.20;1.00;;;;;;5074081;28;20510;-53
2023/01/07 10:47:27;;;;;;;7.57;4.10;;;13.20;1.00;;;;;;5058508;28;20528;-54
2023/01/07 10:49:58;;;;;;;4.13;3.73;;;13.20;1.00;;;;;;5053603;28;20280;-53
2023/01/07 10:53:09;;;;;;;4.93;4.43;;;13.10;1.00;;;;;;5053311;28;20424;-54
2023/01/07 10:55:50;;;;;;;4.20;3.80;;;13.00;1.00;;;;;;5018736;28;20508;-55
2023/01/07 10:58:15;;;;;;;4.37;3.93;;;12.90;1.00;;;;;;5066947;28;20767;-54
2023/01/07 11:00:41;;;;;;;5.10;3.67;;;12.90;1.00;;;;;;5053730;28;20441;-53
2023/01/07 11:03:20;;;;;;;3.90;3.60;;;13.00;1.00;;;;;;5053046;28;20198;-54
2023/01/07 11:05:50;;;;;;;6.03;4.97;;;13.10;1.00;;;;;;5053619;28;20673;-53
2023/01/07 11:08:41;;;;;;;3.90;3.50;;;13.30;1.00;;;;;;5063161;28;20415;-52
2023/01/07 11:11:14;;;;;;;4.60;4.03;;;13.60;1.00;;;;;;5048349;28;20412;-53
2023/01/07 11:13:42;;;;;;;4.90;4.40;;;13.70;1.00;;;;;;5067730;28;20448;-53
2023/01/07 11:16:17;;;;;;;5.20;3.67;;;13.90;1.00;;;;;;5073428;28;20962;-53
2023/01/07 11:19:07;;;;;;;4.80;4.40;;;13.90;1.00;;;;;;5054692;28;20556;-53
2023/01/07 11:21:35;;;;;;;4.40;4.00;;;14.00;1.00;;;;;;5052179;28;20994;-53
2023/01/07 11:24:21;;;;;;;4.77;4.03;;;14.10;1.00;;;;;;5056441;28;20419;-54
2023/01/07 11:26:48;;;;;;;3.90;3.50;;;14.00;1.00;;;;;;5052846;28;20413;-54
2023/01/07 11:30:03;;;;;;;5.63;4.30;;;13.90;1.00;;;;;;5063696;28;20616;-56
2023/01/07 11:32:32;;;;;;;4.10;3.70;;;13.80;1.00;;;;;;5041482;28;20430;-54
2023/01/07 11:35:00;;;;;;;4.10;3.77;;;13.70;1.00;;;;;;5057274;28;20421;-53
2023/01/07 11:37:41;;;;;;;4.20;3.80;;;13.70;1.00;;;;;;5068938;28;20423;-53
2023/01/07 11:40:12;;;;;;;3.73;3.30;;;13.60;1.00;;;;;;5060915;28;20505;-52
2023/01/07 11:42:53;;;;;;;3.60;3.10;;;13.60;1.00;;;;;;5067956;28;20426;-54
2023/01/07 11:45:20;;;;;;;4.17;3.67;;;13.60;1.00;;;;;;5060836;28;20413;-55
2023/01/07 11:48:05;;;;;;;5.30;4.13;;;13.70;1.00;;;;;;5052635;28;20449;-53
2023/01/07 11:50:40;;;;;;;5.30;3.90;;;13.60;1.00;;;;;;5067793;28;20429;-52
2023/01/07 11:53:13;;;;;;;4.70;3.70;;;13.50;1.00;;;;;;5059173;28;20507;-54
2023/01/07 11:55:55;;;;;;;7.07;4.20;;;13.50;1.00;;;;;;5052083;28;20449;-53
2023/01/07 11:58:20;;;;;;;4.13;2.83;;;13.40;1.00;;;;;;5051002;28;21090;-53
2023/01/07 12:01:04;;;;;;;4.80;3.13;;;13.40;1.00;;;;;;5052530;28;20554;-54
2023/01/07 12:03:30;;;;;;;2.90;2.60;;;13.30;1.00;;;;;;5052482;28;20179;-55
2023/01/07 12:05:57;;;;;;;3.40;2.87;;;13.30;1.00;;;;;;5051890;28;20419;-53
2023/01/07 12:08:25;;;;;;;3.20;2.90;;;13.40;1.00;;;;;;5052739;28;20517;-53
2023/01/07 12:10:56;;;;;;;3.07;2.33;;;13.40;1.00;;;;;;5055307;28;20499;-55
2023/01/07 12:13:26;;;;;;;4.87;2.70;;;13.30;1.00;;;;;;5054845;28;20480;-54
2023/01/07 12:15:56;;;;;;;4.40;2.80;;;13.40;1.00;;;;;;5052355;28;20810;-52
2023/01/07 12:19:00;;;;;;;3.37;2.77;;;13.30;1.00;;;;;;5060798;28;20440;-53
2023/01/07 12:21:44;;;;;;;4.50;3.03;;;13.30;1.00;;;;;;5061975;28;20415;-55
2023/01/07 12:24:22;;;;;;;3.57;3.27;;;13.40;1.00;;;;;;5032020;28;20970;-52
2023/01/07 12:27:01;;;;;;;5.40;3.53;;;13.50;1.00;;;;;;5037535;28;20703;-53
2023/01/07 12:29:36;;;;;;;4.90;3.80;;;13.60;1.00;;;;;;5050728;28;20980;-53
2023/01/07 12:32:04;;;;;;;5.73;3.90;;;13.70;1.00;;;;;;5054085;28;20412;-53
2023/01/07 12:34:47;;;;;;;3.90;3.60;;;13.60;1.00;;;;;;5055823;28;20408;-53
2023/01/07 12:37:23;;;;;;;6.10;3.63;;;13.70;1.00;;;;;;5052165;28;20440;-55
2023/01/07 12:39:53;;;;;;;4.63;3.87;;;13.70;1.00;;;;;;5051683;28;20543;-56
2023/01/07 12:42:24;;;;;;;6.00;4.30;;;13.70;1.00;;;;;;5055097;28;20432;-55
2023/01/07 12:45:00;;;;;;;4.97;4.47;;;13.80;1.00;;;;;;5056124;28;20432;-53
2023/01/07 12:47:33;;;;;;;4.70;3.60;;;13.80;1.00;;;;;;5049629;28;20895;-53
2023/01/07 12:50:18;;;;;;;7.23;3.67;;;13.90;1.00;;;;;;5072019;28;20469;-54
2023/01/07 12:53:08;;;;;;;6.17;3.90;;;13.90;1.00;;;;;;5062358;28;20407;-55
2023/01/07 12:55:38;;;;;;;5.47;4.87;;;13.70;1.00;;;;;;5058288;28;20408;-56
2023/01/07 12:58:23;;;;;;;5.00;4.00;;;13.70;1.00;;;;;;5056987;28;20501;-54
2023/01/07 13:01:06;;;;;;;4.50;4.10;;;13.60;1.00;;;;;;5056992;28;20446;-55
2023/01/07 13:03:32;;;;;;;3.77;3.47;;;13.60;1.00;;;;;;5037439;28;20949;-54
2023/01/07 13:06:04;;;;;;;5.10;4.27;;;13.60;1.00;;;;;;5052028;28;20417;-57
2023/01/07 13:08:42;;;;;;;4.10;3.30;;;13.60;1.00;;;;;;5066244;28;20647;-53
2023/01/07 13:14:24;;;;;;;5.50;3.47;;;13.60;1.00;;;;;;5069671;28;20864;-53
2023/01/07 13:16:50;;;;;;;5.67;4.97;;;13.60;1.00;;;;;;5057853;28;20476;-53
2023/01/07 13:19:16;;;;;;;5.00;4.50;;;13.60;1.00;;;;;;5055992;28;20468;-54
2023/01/07 13:21:46;;;;;;;5.53;3.77;;;13.60;1.00;;;;;;5063882;28;20188;-54